Terminal Aerodrome Forecast
Issued by NWS

Home | Current Version | Previous Version | Text Only | Print | Product List | Glossary On
Versions: 1 2 3 4 5 6 7 8 9 10 11 12 13 14 15 16 17 18 19
000
FTAK31 PAFA 261810 AAB
TAFATA
TAF AMD
PATA 261810Z 2618/2718 24010G15KT 1 1/2SM -SN BR VCSH FEW015 OVC025
     FM262300 26010G18KT P6SM -SHSN BKN020 OVC035
     FM271400 VRB03KT P6SM VCSH OVC050=

USA.gov is the U.S. government's official web portal to all federal, state and local government web resources and services.